createdAt,value
2023-04-04T00:00:28.903Z,19.90
2023-04-04T00:03:14.817Z,11.90
2023-04-04T00:05:42.237Z,17.10
2023-04-04T00:08:09.366Z,20.40
2023-04-04T00:10:36.487Z,19.30
2023-04-04T00:13:03.765Z,16.70
2023-04-04T00:15:30.945Z,13.60
2023-04-04T00:17:58.544Z,12.70
2023-04-04T00:20:26.604Z,26.40
2023-04-04T00:22:53.683Z,25.40
2023-04-04T00:25:20.826Z,20.80
2023-04-04T00:27:48.921Z,11.20
2023-04-04T00:30:16.465Z,10.40
2023-04-04T00:32:43.793Z,9.10
2023-04-04T00:35:11.025Z,7.40
2023-04-04T00:37:38.989Z,7.30
2023-04-04T00:40:07.237Z,8.30
2023-04-04T00:42:35.130Z,6.80
2023-04-04T00:45:02.471Z,7.50
2023-04-04T00:47:33.725Z,8.20
2023-04-04T00:50:02.263Z,8.10
2023-04-04T00:52:29.588Z,8.10
2023-04-04T00:54:57.285Z,6.50
2023-04-04T00:57:24.729Z,7.80
2023-04-04T00:59:52.263Z,12.00
2023-04-04T01:02:19.535Z,10.90
2023-04-04T01:04:47.347Z,9.80
2023-04-04T01:07:14.927Z,12.30
2023-04-04T01:09:42.640Z,11.10
2023-04-04T01:12:10.304Z,10.50
2023-04-04T01:14:37.737Z,7.00
2023-04-04T01:17:06.235Z,12.00
2023-04-04T01:20:06.777Z,11.50
2023-04-04T01:22:46.585Z,8.10
2023-04-04T01:25:15.078Z,7.90
2023-04-04T01:27:46.479Z,11.30
2023-04-04T01:30:17.394Z,11.40
2023-04-04T01:32:49.565Z,12.90
2023-04-04T01:35:33.924Z,14.90
2023-04-04T01:38:07.248Z,10.70
2023-04-04T01:40:37.575Z,11.60
2023-04-04T01:43:07.344Z,13.80
2023-04-04T01:45:35.502Z,12.10
2023-04-04T01:48:06.823Z,7.50
2023-04-04T01:50:34.225Z,10.80
2023-04-04T01:53:01.453Z,10.30
2023-04-04T01:55:28.633Z,9.80
2023-04-04T01:57:56.097Z,11.20
2023-04-04T02:00:23.295Z,12.70
2023-04-04T02:02:50.848Z,10.80
2023-04-04T02:05:18.045Z,10.60
2023-04-04T02:07:54.395Z,7.50
2023-04-04T02:10:26.950Z,8.40
2023-04-04T02:12:54.158Z,8.20
2023-04-04T02:15:24.038Z,9.20
2023-04-04T02:17:51.288Z,11.20
2023-04-04T02:20:19.690Z,7.40
2023-04-04T02:22:54.761Z,12.50
2023-04-04T02:25:23.486Z,11.40
2023-04-04T02:27:51.582Z,7.80
2023-04-04T02:30:19.662Z,8.80
2023-04-04T02:32:47.723Z,12.10
2023-04-04T02:35:17.548Z,20.00
2023-04-04T02:37:47.723Z,29.00
2023-04-04T02:40:21.144Z,19.50
2023-04-04T02:42:48.340Z,16.60
2023-04-04T02:45:15.759Z,8.60
2023-04-04T02:47:52.189Z,10.80
2023-04-04T02:50:21.862Z,7.70
2023-04-04T02:52:55.587Z,11.70
2023-04-04T02:55:22.721Z,16.90
2023-04-04T02:57:52.809Z,15.10
2023-04-04T03:00:20.330Z,11.50
2023-04-04T03:02:54.379Z,19.10
2023-04-04T03:05:25.271Z,14.90
2023-04-04T03:07:56.880Z,18.40
2023-04-04T03:10:25.357Z,10.00
2023-04-04T03:12:52.739Z,8.90
2023-04-04T03:15:22.407Z,11.60
2023-04-04T03:17:49.868Z,10.80
2023-04-04T03:20:17.314Z,10.50
2023-04-04T03:22:45.077Z,8.00
2023-04-04T03:25:12.213Z,12.60
2023-04-04T03:27:40.026Z,9.80
2023-04-04T03:30:11.143Z,7.60
2023-04-04T03:32:39.481Z,10.60
2023-04-04T03:35:07.945Z,9.30
2023-04-04T03:37:35.563Z,21.20
2023-04-04T03:40:02.761Z,12.30
2023-04-04T03:42:34.973Z,7.70
2023-04-04T03:45:04.917Z,8.90
2023-04-04T03:47:33.094Z,4.50
2023-04-04T03:50:02.716Z,9.80
2023-04-04T03:52:30.315Z,12.30
2023-04-04T03:54:58.645Z,10.10
2023-04-04T03:57:27.405Z,7.60
2023-04-04T03:59:54.566Z,6.50
2023-04-04T04:02:22.897Z,7.30
2023-04-04T04:04:50.236Z,14.40
2023-04-04T04:07:17.385Z,20.60
2023-04-04T04:09:44.569Z,33.80
2023-04-04T04:12:12.970Z,18.80
2023-04-04T04:14:42.482Z,16.80
2023-04-04T04:17:09.836Z,20.40
2023-04-04T04:19:36.979Z,34.90
2023-04-04T04:22:04.129Z,50.50
2023-04-04T04:24:31.565Z,92.10
2023-04-04T04:26:59.420Z,175.90
2023-04-04T04:29:26.733Z,220.90
2023-04-04T04:31:53.936Z,123.30
2023-04-04T04:34:22.163Z,169.50
2023-04-04T04:36:49.901Z,212.70
2023-04-04T04:39:26.305Z,128.40
2023-04-04T04:42:12.843Z,211.40
2023-04-04T04:44:46.490Z,198.30
2023-04-04T04:47:14.096Z,233.60
2023-04-04T04:49:42.418Z,198.50
2023-04-04T04:52:10.392Z,170.50
2023-04-04T04:54:40.539Z,145.70
2023-04-04T04:57:08.272Z,95.80
2023-04-04T04:59:37.310Z,119.40
2023-04-04T05:02:04.999Z,101.90
2023-04-04T05:04:36.436Z,157.90
2023-04-04T05:07:07.817Z,113.30
2023-04-04T05:09:35.037Z,146.30
2023-04-04T05:12:02.391Z,142.70
2023-04-04T05:14:37.685Z,117.40
2023-04-04T05:17:06.112Z,134.40
2023-04-04T05:19:34.174Z,146.40
2023-04-04T05:22:01.937Z,151.00
2023-04-04T05:24:33.732Z,253.70
2023-04-04T05:27:01.065Z,219.30
2023-04-04T05:29:33.432Z,158.20
2023-04-04T05:32:03.100Z,115.70
2023-04-04T05:34:30.679Z,68.60
2023-04-04T05:36:58.932Z,109.30
2023-04-04T05:39:26.184Z,56.60
2023-04-04T05:42:00.715Z,63.70
2023-04-04T05:44:30.867Z,62.00
2023-04-04T05:46:58.210Z,49.90
2023-04-04T05:49:27.155Z,61.70
2023-04-04T05:51:57.247Z,51.70
2023-04-04T05:54:25.528Z,52.40
2023-04-04T05:56:52.838Z,59.00
2023-04-04T05:59:30.642Z,58.40
2023-04-04T06:02:01.973Z,65.10
2023-04-04T06:04:29.873Z,43.00
2023-04-04T06:06:59.352Z,34.50
2023-04-04T06:09:27.484Z,32.20
2023-04-04T06:11:54.856Z,34.70
2023-04-04T06:14:22.473Z,22.50
2023-04-04T06:16:50.117Z,44.90
2023-04-04T06:19:17.384Z,77.30
2023-04-04T06:21:44.641Z,78.00
2023-04-04T06:24:13.275Z,59.70
2023-04-04T06:26:40.292Z,93.80
2023-04-04T06:29:07.445Z,58.00
2023-04-04T06:31:37.235Z,74.70
2023-04-04T06:34:10.778Z,66.80
2023-04-04T06:36:58.100Z,59.90
2023-04-04T06:39:29.962Z,40.40
2023-04-04T06:41:59.171Z,28.10
2023-04-04T06:44:29.282Z,42.20
2023-04-04T06:46:57.241Z,56.90
2023-04-04T06:49:25.169Z,52.20
2023-04-04T06:51:52.834Z,51.50
2023-04-04T06:54:20.495Z,22.50
2023-04-04T06:56:47.727Z,27.50
2023-04-04T06:59:15.168Z,29.60
2023-04-04T07:01:42.253Z,37.90
2023-04-04T07:04:09.407Z,18.90
2023-04-04T07:06:36.708Z,18.90
2023-04-04T07:09:05.905Z,17.50
2023-04-04T07:11:34.468Z,15.40
2023-04-04T07:14:01.727Z,17.70
2023-04-04T07:16:28.932Z,26.10
2023-04-04T07:18:56.745Z,23.20
2023-04-04T07:21:24.978Z,24.50
2023-04-04T07:23:52.066Z,40.60
2023-04-04T07:26:19.109Z,30.00
2023-04-04T07:28:46.212Z,21.00
2023-04-04T07:31:14.925Z,13.30
2023-04-04T07:33:42.206Z,13.30
2023-04-04T07:36:10.129Z,10.50
2023-04-04T07:38:37.554Z,14.60
2023-04-04T07:41:04.704Z,8.70
2023-04-04T07:43:32.082Z,24.90
2023-04-04T07:45:59.280Z,64.20
2023-04-04T07:48:28.075Z,72.10
2023-04-04T07:50:55.225Z,59.40
2023-04-04T07:53:22.807Z,18.30
2023-04-04T07:55:49.997Z,19.20
2023-04-04T07:58:17.106Z,12.00
2023-04-04T08:00:44.308Z,16.00
2023-04-04T08:03:12.577Z,24.00
2023-04-04T08:05:41.655Z,13.90
2023-04-04T08:08:08.813Z,27.40
2023-04-04T08:10:35.868Z,14.70
2023-04-04T08:13:04.655Z,15.90
2023-04-04T08:15:32.257Z,13.50
2023-04-04T08:17:59.433Z,7.90
2023-04-04T08:20:27.219Z,9.40
2023-04-04T08:22:54.402Z,9.60
2023-04-04T08:25:21.550Z,12.00
2023-04-04T08:27:48.758Z,7.10
2023-04-04T08:30:15.925Z,9.90
2023-04-04T08:32:45.937Z,15.50
2023-04-04T08:35:13.242Z,10.80
2023-04-04T08:37:45.943Z,21.10
2023-04-04T08:40:13.658Z,26.00
2023-04-04T08:42:44.396Z,14.10
2023-04-04T08:45:12.561Z,13.00
2023-04-04T08:47:41.831Z,17.00
2023-04-04T08:50:09.106Z,16.30
2023-04-04T08:52:37.448Z,23.20
2023-04-04T08:55:06.038Z,23.90
2023-04-04T08:57:33.938Z,24.60
2023-04-04T09:00:03.269Z,23.30
2023-04-04T09:02:37.474Z,22.00
2023-04-04T09:05:06.910Z,27.60
2023-04-04T09:07:38.551Z,27.70
2023-04-04T09:10:09.488Z,47.80
2023-04-04T09:12:40.194Z,102.00
2023-04-04T09:15:07.938Z,35.40
2023-04-04T09:17:35.186Z,30.40
2023-04-04T09:20:04.594Z,30.90
2023-04-04T09:22:31.856Z,28.00
2023-04-04T09:24:58.968Z,20.20
2023-04-04T09:27:26.248Z,40.30
2023-04-04T09:29:53.322Z,26.10
2023-04-04T09:32:23.279Z,19.20
2023-04-04T09:34:50.739Z,32.30
2023-04-04T09:37:18.586Z,28.20
2023-04-04T09:39:46.693Z,31.80
2023-04-04T09:42:15.291Z,26.80
2023-04-04T09:44:42.449Z,33.50
2023-04-04T09:47:31.914Z,31.00
2023-04-04T09:50:00.271Z,41.00
2023-04-04T09:52:27.628Z,39.70
2023-04-04T09:55:02.482Z,40.80
2023-04-04T09:57:31.254Z,53.90
2023-04-04T10:00:04.151Z,22.10
2023-04-04T10:02:38.857Z,90.30
2023-04-04T10:05:10.522Z,43.20
2023-04-04T10:07:42.428Z,36.30
2023-04-04T10:10:10.527Z,33.40
2023-04-04T10:12:38.150Z,49.50
2023-04-04T10:15:06.078Z,41.60
2023-04-04T10:17:41.901Z,23.30
2023-04-04T10:20:10.021Z,22.60
2023-04-04T10:22:38.878Z,13.50
2023-04-04T10:25:07.361Z,16.40
2023-04-04T10:27:34.824Z,16.70
2023-04-04T10:30:02.396Z,12.80
2023-04-04T10:32:51.248Z,15.50
2023-04-04T10:35:22.819Z,11.30
2023-04-04T10:37:58.612Z,12.40
2023-04-04T10:40:34.811Z,19.90
2023-04-04T10:43:06.770Z,16.20
2023-04-04T10:45:38.548Z,13.00
2023-04-04T10:48:08.926Z,14.90
2023-04-04T10:50:39.531Z,16.20
2023-04-04T10:53:07.737Z,13.50
2023-04-04T10:55:37.459Z,8.50
2023-04-04T10:58:06.579Z,10.80
2023-04-04T11:00:33.806Z,8.10
2023-04-04T11:03:02.481Z,11.30
2023-04-04T11:05:49.391Z,23.60
2023-04-04T11:08:20.118Z,14.10
2023-04-04T11:10:52.259Z,42.90
2023-04-04T11:13:35.758Z,26.70
2023-04-04T11:16:10.126Z,44.30
2023-04-04T11:18:45.860Z,78.50
2023-04-04T11:21:24.145Z,63.60
2023-04-04T11:23:54.530Z,90.30
2023-04-04T11:26:30.312Z,61.80
2023-04-04T11:29:02.222Z,41.80
2023-04-04T11:31:33.745Z,33.40
2023-04-04T11:34:09.032Z,69.60
2023-04-04T11:36:36.330Z,21.30
2023-04-04T11:39:14.976Z,15.80
2023-04-04T11:41:47.689Z,26.90
2023-04-04T11:44:18.927Z,19.00
2023-04-04T11:46:51.012Z,25.90
2023-04-04T11:49:18.751Z,40.40
2023-04-04T11:51:46.015Z,21.50
2023-04-04T11:54:17.680Z,34.90
2023-04-04T11:56:45.576Z,24.10
2023-04-04T11:59:13.429Z,12.50
2023-04-04T12:01:41.410Z,9.40
2023-04-04T12:04:09.979Z,9.60
2023-04-04T12:06:38.592Z,18.60
2023-04-04T12:09:06.425Z,18.10
2023-04-04T12:11:37.401Z,74.80
2023-04-04T12:14:04.677Z,28.90
2023-04-04T12:16:32.097Z,19.20
2023-04-04T12:19:02.217Z,19.00
2023-04-04T12:21:32.773Z,16.00
2023-04-04T12:24:00.101Z,12.80
2023-04-04T12:26:31.100Z,16.70
2023-04-04T12:28:58.625Z,18.90
2023-04-04T12:31:27.422Z,8.20
2023-04-04T12:33:55.109Z,12.90
2023-04-04T12:36:26.228Z,16.30
2023-04-04T12:39:01.704Z,13.80
2023-04-04T12:41:29.315Z,6.40
2023-04-04T12:44:09.906Z,6.40
2023-04-04T12:46:42.356Z,6.40
2023-04-04T12:49:14.706Z,10.20
2023-04-04T12:51:42.207Z,8.70
2023-04-04T12:54:26.228Z,6.20
2023-04-04T12:56:58.168Z,7.10
2023-04-04T12:59:30.793Z,6.90
2023-04-04T13:01:58.616Z,6.50
2023-04-04T13:04:25.916Z,3.00
2023-04-04T13:06:53.375Z,9.10
2023-04-04T13:09:23.393Z,12.70
2023-04-04T13:12:03.769Z,8.80
2023-04-04T13:14:56.401Z,4.50
2023-04-04T13:17:23.836Z,49.80
2023-04-04T13:19:51.733Z,16.30
2023-04-04T13:22:19.012Z,40.30
2023-04-04T13:24:46.093Z,10.60
2023-04-04T13:27:13.181Z,13.30
2023-04-04T13:29:40.333Z,10.40
2023-04-04T13:32:07.380Z,13.40
2023-04-04T13:34:36.386Z,40.30
2023-04-04T13:37:03.554Z,20.20
2023-04-04T13:39:30.675Z,17.70
2023-04-04T13:41:57.956Z,19.90
2023-04-04T13:44:27.154Z,11.90
2023-04-04T13:46:54.413Z,28.70
2023-04-04T13:49:21.562Z,15.00
2023-04-04T13:51:49.250Z,7.20
2023-04-04T13:54:16.345Z,14.90
2023-04-04T13:56:43.470Z,7.90
2023-04-04T13:59:10.797Z,19.30
2023-04-04T14:01:39.118Z,17.30
2023-04-04T14:04:16.610Z,9.50
2023-04-04T14:06:50.478Z,12.60
2023-04-04T14:09:17.664Z,13.40
2023-04-04T14:11:46.554Z,9.60
2023-04-04T14:14:13.680Z,5.20
2023-04-04T14:16:40.842Z,5.60
2023-04-04T14:19:08.150Z,6.50
2023-04-04T14:21:35.557Z,20.00
2023-04-04T14:24:03.300Z,18.40
2023-04-04T14:26:30.370Z,27.80
2023-04-04T14:28:57.650Z,24.20
2023-04-04T14:31:24.806Z,21.00
2023-04-04T14:33:51.976Z,7.40
2023-04-04T14:36:21.829Z,8.50
2023-04-04T14:38:49.066Z,6.50
2023-04-04T14:41:17.090Z,5.20
2023-04-04T14:43:44.957Z,11.40
2023-04-04T14:46:12.185Z,7.10
2023-04-04T14:48:39.391Z,14.80
2023-04-04T14:51:06.717Z,8.80
2023-04-04T14:53:33.918Z,7.60
2023-04-04T14:56:01.197Z,21.90
2023-04-04T14:58:28.960Z,15.70
2023-04-04T15:00:56.738Z,21.00
2023-04-04T15:03:23.954Z,30.50
2023-04-04T15:05:51.442Z,15.90
2023-04-04T15:08:18.535Z,8.10
2023-04-04T15:10:45.660Z,14.30
2023-04-04T15:13:13.030Z,24.70
2023-04-04T15:15:40.257Z,13.00
2023-04-04T15:18:07.433Z,13.70
2023-04-04T15:20:34.698Z,15.30
2023-04-04T15:23:01.792Z,11.20
2023-04-04T15:25:29.954Z,11.20
2023-04-04T15:27:57.077Z,30.00
2023-04-04T15:30:24.243Z,47.20
2023-04-04T15:32:53.168Z,25.00
2023-04-04T15:35:21.577Z,26.10
2023-04-04T15:37:51.448Z,21.00
2023-04-04T15:40:19.493Z,22.50
2023-04-04T15:42:47.108Z,6.20
2023-04-04T15:45:14.754Z,16.40
2023-04-04T15:47:42.720Z,15.40
2023-04-04T15:50:11.717Z,23.30
2023-04-04T15:52:38.877Z,30.30
2023-04-04T15:55:11.697Z,27.00
2023-04-04T15:57:39.005Z,26.30
2023-04-04T16:00:06.982Z,40.40
2023-04-04T16:02:37.681Z,20.90
2023-04-04T16:05:05.359Z,225.20
2023-04-04T16:07:32.681Z,194.90
2023-04-04T16:09:59.851Z,171.10
2023-04-04T16:12:27.136Z,277.50
2023-04-04T16:14:54.177Z,76.20
2023-04-04T16:17:21.197Z,57.50
2023-04-04T16:19:48.298Z,115.60
2023-04-04T16:22:15.400Z,87.20
2023-04-04T16:24:42.484Z,82.30
2023-04-04T16:27:09.575Z,132.70
2023-04-04T16:29:36.663Z,219.60
2023-04-04T16:32:05.929Z,135.70
2023-04-04T16:34:33.098Z,62.20
2023-04-04T16:37:00.425Z,45.70
2023-04-04T16:39:27.586Z,62.20
2023-04-04T16:41:54.858Z,66.20
2023-04-04T16:44:21.998Z,88.80
2023-04-04T16:46:49.167Z,46.10
2023-04-04T16:49:16.567Z,58.60
2023-04-04T16:51:43.613Z,56.00
2023-04-04T16:54:11.379Z,183.00
2023-04-04T16:56:38.896Z,208.80
2023-04-04T16:59:06.027Z,195.90
2023-04-04T17:01:33.693Z,81.10
2023-04-04T17:04:01.014Z,81.30
2023-04-04T17:06:28.209Z,100.50
2023-04-04T17:08:55.566Z,89.00
2023-04-04T17:11:22.764Z,85.70
2023-04-04T17:13:50.092Z,46.10
2023-04-04T17:16:17.352Z,49.70
2023-04-04T17:18:44.593Z,108.30
2023-04-04T17:21:11.776Z,80.20
2023-04-04T17:23:38.845Z,58.50
2023-04-04T17:26:05.904Z,60.70
2023-04-04T17:28:32.967Z,61.90
2023-04-04T17:31:00.155Z,56.40
2023-04-04T17:33:27.569Z,46.80
2023-04-04T17:35:54.673Z,65.40
2023-04-04T17:38:22.194Z,43.60
2023-04-04T17:40:49.905Z,52.00
2023-04-04T17:43:17.068Z,40.40
2023-04-04T17:45:45.017Z,28.60
2023-04-04T17:48:12.587Z,39.60
2023-04-04T17:50:39.948Z,69.60
2023-04-04T17:53:07.577Z,165.00
2023-04-04T17:55:34.804Z,95.10
2023-04-04T17:58:01.933Z,40.50
2023-04-04T18:00:29.751Z,33.40
2023-04-04T18:02:57.152Z,75.50
2023-04-04T18:05:24.355Z,95.70
2023-04-04T18:07:51.401Z,163.90
2023-04-04T18:10:18.661Z,266.80
2023-04-04T18:12:46.672Z,319.90
2023-04-04T18:15:14.053Z,239.90
2023-04-04T18:17:42.140Z,290.60
2023-04-04T18:20:10.512Z,197.80
2023-04-04T18:22:38.685Z,181.60
2023-04-04T18:25:06.342Z,184.10
2023-04-04T18:27:33.444Z,273.30
2023-04-04T18:30:00.625Z,224.20
2023-04-04T18:32:29.215Z,178.20
2023-04-04T18:34:56.434Z,169.00
2023-04-04T18:37:23.583Z,141.40
2023-04-04T18:39:50.707Z,107.70
2023-04-04T18:42:17.914Z,154.00
2023-04-04T18:44:45.382Z,129.90
2023-04-04T18:47:12.518Z,120.30
2023-04-04T18:49:39.649Z,245.00
2023-04-04T18:52:06.730Z,172.40
2023-04-04T18:54:33.742Z,154.60
2023-04-04T18:57:01.113Z,122.50
2023-04-04T18:59:29.077Z,103.20
2023-04-04T19:01:56.827Z,117.00
2023-04-04T19:04:24.239Z,131.50
2023-04-04T19:06:53.486Z,67.20
2023-04-04T19:09:21.677Z,51.50
2023-04-04T19:11:49.319Z,71.90
2023-04-04T19:14:17.124Z,161.10
2023-04-04T19:16:44.395Z,202.80
2023-04-04T19:19:12.423Z,252.40
2023-04-04T19:21:39.982Z,314.00
2023-04-04T19:24:08.261Z,200.90
2023-04-04T19:26:35.536Z,102.50
2023-04-04T19:29:02.505Z,150.40
2023-04-04T19:31:32.971Z,101.40
2023-04-04T19:34:03.555Z,96.20
2023-04-04T19:36:35.910Z,141.50
2023-04-04T19:39:03.450Z,124.30
2023-04-04T19:41:33.841Z,221.00
2023-04-04T19:44:01.325Z,191.60
2023-04-04T19:46:32.725Z,118.40
2023-04-04T19:49:03.214Z,108.20
2023-04-04T19:51:40.260Z,84.80
2023-04-04T19:54:12.240Z,50.90
2023-04-04T19:56:39.397Z,59.90
2023-04-04T19:59:10.421Z,80.30
2023-04-04T20:01:44.688Z,90.00
2023-04-04T20:04:17.681Z,121.30
2023-04-04T20:06:44.977Z,99.60
2023-04-04T20:09:34.863Z,55.20
2023-04-04T20:12:02.295Z,40.10
2023-04-04T20:14:29.953Z,57.40
2023-04-04T20:16:57.140Z,66.80
2023-04-04T20:19:27.765Z,64.20
2023-04-04T20:21:55.099Z,42.20
2023-04-04T20:24:22.499Z,30.50
2023-04-04T20:26:59.677Z,22.80
2023-04-04T20:29:37.022Z,33.80
2023-04-04T20:32:08.421Z,55.60
2023-04-04T20:34:42.114Z,225.50
2023-04-04T20:37:22.254Z,159.30
2023-04-04T20:40:00.011Z,114.00
2023-04-04T20:42:31.354Z,115.60
2023-04-04T20:45:13.953Z,140.50
2023-04-04T20:47:55.189Z,109.60
2023-04-04T20:50:42.928Z,115.30
2023-04-04T20:53:16.974Z,264.50
2023-04-04T20:55:44.416Z,171.30
2023-04-04T20:58:20.821Z,153.30
2023-04-04T21:00:48.045Z,183.70
2023-04-04T21:03:34.524Z,205.00
2023-04-04T21:06:15.733Z,187.50
2023-04-04T21:08:51.106Z,217.10
2023-04-04T21:11:25.151Z,162.90
2023-04-04T21:13:52.344Z,176.00
2023-04-04T21:16:23.889Z,120.70
2023-04-04T21:18:58.106Z,115.40
2023-04-04T21:21:26.393Z,97.00
2023-04-04T21:23:55.971Z,81.00
2023-04-04T21:26:36.643Z,79.60
2023-04-04T21:29:06.330Z,83.00
2023-04-04T21:31:39.987Z,78.50
2023-04-04T21:34:08.348Z,78.20
2023-04-04T21:36:35.657Z,163.20
2023-04-04T21:39:07.341Z,88.90
2023-04-04T21:41:35.568Z,101.60
2023-04-04T21:44:08.070Z,105.70
2023-04-04T21:46:40.259Z,114.70
2023-04-04T21:49:08.985Z,159.00
2023-04-04T21:51:36.863Z,142.50
2023-04-04T21:54:04.501Z,152.50
2023-04-04T21:56:31.848Z,129.10
2023-04-04T21:59:00.507Z,98.00
2023-04-04T22:01:28.217Z,107.40
2023-04-04T22:03:55.337Z,65.50
2023-04-04T22:06:24.288Z,54.30
2023-04-04T22:08:56.216Z,46.10
2023-04-04T22:11:26.263Z,36.60
2023-04-04T22:14:03.473Z,28.70
2023-04-04T22:16:31.939Z,33.60
2023-04-04T22:19:01.511Z,24.60
2023-04-04T22:21:28.840Z,36.10
2023-04-04T22:24:01.988Z,33.70
2023-04-04T22:26:32.567Z,48.80
2023-04-04T22:29:04.672Z,39.00
2023-04-04T22:31:34.727Z,30.20
2023-04-04T22:34:03.473Z,30.00
2023-04-04T22:36:31.224Z,35.80
2023-04-04T22:38:58.730Z,29.60
2023-04-04T22:41:28.150Z,20.60
2023-04-04T22:43:56.798Z,21.40
2023-04-04T22:46:25.784Z,28.70
2023-04-04T22:49:06.075Z,19.40
2023-04-04T22:51:45.702Z,23.20
2023-04-04T22:54:15.241Z,16.30
2023-04-04T22:56:42.807Z,15.10
2023-04-04T22:59:10.193Z,19.90
2023-04-04T23:01:37.395Z,23.40
2023-04-04T23:04:04.792Z,36.50
2023-04-04T23:06:31.978Z,37.70
2023-04-04T23:08:59.335Z,61.70
2023-04-04T23:11:27.545Z,34.40
2023-04-04T23:13:57.136Z,32.40
2023-04-04T23:16:26.496Z,38.80
2023-04-04T23:18:54.028Z,190.10
2023-04-04T23:21:22.281Z,133.80
2023-04-04T23:23:49.631Z,65.40
2023-04-04T23:26:16.705Z,247.10
2023-04-04T23:28:43.835Z,344.10
2023-04-04T23:31:11.075Z,361.60
2023-04-04T23:33:38.270Z,131.00
2023-04-04T23:36:05.959Z,399.80
2023-04-04T23:38:33.256Z,362.70
2023-04-04T23:41:00.438Z,252.50
2023-04-04T23:43:27.630Z,95.30
2023-04-04T23:45:55.097Z,92.50
2023-04-04T23:48:22.422Z,233.50
2023-04-04T23:50:50.256Z,223.20
2023-04-04T23:53:17.593Z,132.70
2023-04-04T23:55:44.794Z,237.20
2023-04-04T23:58:12.068Z,114.40
